createdAt,value
2023-05-09T00:00:38.977Z,244.40
2023-05-09T00:01:38.990Z,278.68
2023-05-09T00:02:38.992Z,269.52
2023-05-09T00:03:38.971Z,271.99
2023-05-09T00:04:39.014Z,284.28
2023-05-09T00:05:39.018Z,244.42
2023-05-09T00:06:38.955Z,217.56
2023-05-09T00:07:38.940Z,188.46
2023-05-09T00:08:38.936Z,187.97
2023-05-09T00:09:38.924Z,200.23
2023-05-09T00:10:38.914Z,175.92
2023-05-09T00:11:38.976Z,199.49
2023-05-09T00:12:38.923Z,203.97
2023-05-09T00:13:38.897Z,207.52
2023-05-09T00:14:38.880Z,195.57
2023-05-09T00:15:38.858Z,202.99
2023-05-09T00:16:38.967Z,192.47
2023-05-09T00:17:38.929Z,203.70
2023-05-09T00:18:38.874Z,200.77
2023-05-09T00:19:38.887Z,190.49
2023-05-09T00:20:38.835Z,190.67
2023-05-09T00:21:38.832Z,188.93
2023-05-09T00:22:38.808Z,210.40
2023-05-09T00:23:38.876Z,224.56
2023-05-09T00:24:38.821Z,229.61
2023-05-09T00:25:38.827Z,234.15
2023-05-09T00:26:38.798Z,238.56
2023-05-09T00:27:38.871Z,231.69
2023-05-09T00:28:38.771Z,273.27
2023-05-09T00:29:38.796Z,286.33
2023-05-09T00:30:38.798Z,292.78
2023-05-09T00:31:38.786Z,286.51
2023-05-09T00:32:38.809Z,287.90
2023-05-09T00:33:38.749Z,318.00
2023-05-09T00:34:38.737Z,300.12
2023-05-09T00:35:38.749Z,283.21
2023-05-09T00:36:38.800Z,298.47
2023-05-09T00:37:38.870Z,314.89
2023-05-09T00:38:38.908Z,318.16
2023-05-09T00:39:38.952Z,329.17
2023-05-09T00:40:39.041Z,339.65
2023-05-09T00:41:39.022Z,360.06
2023-05-09T00:42:39.072Z,363.45
2023-05-09T00:43:39.174Z,329.55
2023-05-09T00:44:39.151Z,266.65
2023-05-09T00:45:39.146Z,228.73
2023-05-09T00:46:39.176Z,211.86
2023-05-09T00:47:39.273Z,212.15
2023-05-09T00:48:39.218Z,204.21
2023-05-09T00:49:39.215Z,222.68
2023-05-09T00:50:39.226Z,236.18
2023-05-09T00:51:39.286Z,258.38
2023-05-09T00:52:39.354Z,241.17
2023-05-09T00:53:39.346Z,230.12
2023-05-09T00:54:39.460Z,219.16
2023-05-09T00:55:39.465Z,196.81
2023-05-09T00:56:39.530Z,169.41
2023-05-09T00:57:39.595Z,155.79
2023-05-09T00:58:39.663Z,175.29
2023-05-09T00:59:39.750Z,202.01
2023-05-09T01:00:39.709Z,207.66
2023-05-09T01:01:39.794Z,210.18
2023-05-09T01:02:39.822Z,202.22
2023-05-09T01:03:40.002Z,208.28
2023-05-09T01:04:39.896Z,193.85
2023-05-09T01:05:39.919Z,164.45
2023-05-09T01:06:39.952Z,151.07
2023-05-09T01:07:39.983Z,166.56
2023-05-09T01:08:39.989Z,192.90
2023-05-09T01:09:40.032Z,196.19
2023-05-09T01:10:40.071Z,185.53
2023-05-09T01:11:40.089Z,135.75
2023-05-09T01:12:40.105Z,86.45
2023-05-09T01:13:40.097Z,70.88
2023-05-09T01:14:40.130Z,69.13
2023-05-09T01:15:40.276Z,84.08
2023-05-09T01:16:40.138Z,80.37
2023-05-09T01:17:40.230Z,87.99
2023-05-09T01:18:40.177Z,105.42
2023-05-09T01:19:40.239Z,116.83
2023-05-09T01:20:40.223Z,129.09
2023-05-09T01:21:40.237Z,133.54
2023-05-09T01:22:40.277Z,115.08
2023-05-09T01:23:40.313Z,109.77
2023-05-09T01:24:40.319Z,121.59
2023-05-09T01:25:40.378Z,120.48
2023-05-09T01:26:40.414Z,131.33
2023-05-09T01:27:40.484Z,143.08
2023-05-09T01:28:40.502Z,141.68
2023-05-09T01:29:40.518Z,145.85
2023-05-09T01:30:40.533Z,162.13
2023-05-09T01:31:40.673Z,162.39
2023-05-09T01:32:40.644Z,126.04
2023-05-09T01:33:40.629Z,100.42
2023-05-09T01:34:40.642Z,78.23
2023-05-09T01:35:40.655Z,67.44
2023-05-09T01:36:40.702Z,67.01
2023-05-09T01:37:40.719Z,77.64
2023-05-09T01:38:40.758Z,62.01
2023-05-09T01:39:40.826Z,66.14
2023-05-09T01:40:40.838Z,73.94
2023-05-09T01:41:40.891Z,75.05
2023-05-09T01:42:40.877Z,71.76
2023-05-09T01:43:41.000Z,81.98
2023-05-09T01:44:40.956Z,83.35
2023-05-09T01:45:40.978Z,75.61
2023-05-09T01:46:41.086Z,81.53
2023-05-09T01:47:41.135Z,90.18
2023-05-09T01:48:41.117Z,96.78
2023-05-09T01:49:41.165Z,106.63
2023-05-09T01:50:41.218Z,130.89
2023-05-09T01:51:43.647Z,145.39
2023-05-09T01:52:41.283Z,167.97
2023-05-09T01:53:41.225Z,182.15
2023-05-09T01:54:41.226Z,195.70
2023-05-09T01:55:41.240Z,188.80
2023-05-09T01:56:41.207Z,199.73
2023-05-09T01:57:41.223Z,207.31
2023-05-09T01:58:41.191Z,216.27
2023-05-09T01:59:41.197Z,240.86
2023-05-09T02:00:41.249Z,252.25
2023-05-09T02:01:41.197Z,239.04
2023-05-09T02:02:41.268Z,246.72
2023-05-09T02:03:41.265Z,194.32
2023-05-09T02:04:41.143Z,181.94
2023-05-09T02:05:41.205Z,172.62
2023-05-09T02:06:41.149Z,158.61
2023-05-09T02:07:41.136Z,154.81
2023-05-09T02:08:41.148Z,139.11
2023-05-09T02:09:41.163Z,139.30
2023-05-09T02:10:41.157Z,135.26
2023-05-09T02:11:41.127Z,131.52
2023-05-09T02:12:41.176Z,132.47
2023-05-09T02:13:41.126Z,128.83
2023-05-09T02:14:41.083Z,114.09
2023-05-09T02:15:41.089Z,109.65
2023-05-09T02:16:41.138Z,118.00
2023-05-09T02:17:41.096Z,128.02
2023-05-09T02:18:41.078Z,150.58
2023-05-09T02:19:41.148Z,152.12
2023-05-09T02:20:41.077Z,142.41
2023-05-09T02:21:41.094Z,147.86
2023-05-09T02:22:41.093Z,166.03
2023-05-09T02:23:41.041Z,195.04
2023-05-09T02:24:41.135Z,210.25
2023-05-09T02:25:41.050Z,201.45
2023-05-09T02:26:41.028Z,221.62
2023-05-09T02:27:41.031Z,224.81
2023-05-09T02:28:40.982Z,196.04
2023-05-09T02:29:40.997Z,163.94
2023-05-09T02:30:41.017Z,167.10
2023-05-09T02:31:41.015Z,166.44
2023-05-09T02:32:41.040Z,170.75
2023-05-09T02:33:40.958Z,168.04
2023-05-09T02:34:40.983Z,170.37
2023-05-09T02:35:41.020Z,177.61
2023-05-09T02:36:40.936Z,181.62
2023-05-09T02:37:40.944Z,179.31
2023-05-09T02:38:40.923Z,162.10
2023-05-09T02:39:40.978Z,165.98
2023-05-09T02:40:40.948Z,180.06
2023-05-09T02:41:40.911Z,178.61
2023-05-09T02:42:40.916Z,195.03
2023-05-09T02:43:40.929Z,212.90
2023-05-09T02:44:40.933Z,221.35
2023-05-09T02:45:40.975Z,218.90
2023-05-09T02:46:40.864Z,213.31
2023-05-09T02:47:40.932Z,198.08
2023-05-09T02:48:40.903Z,196.75
2023-05-09T02:49:40.905Z,192.77
2023-05-09T02:50:40.940Z,205.41
2023-05-09T02:51:40.926Z,229.04
2023-05-09T02:52:40.843Z,249.52
2023-05-09T02:53:40.846Z,268.25
2023-05-09T02:54:40.853Z,288.80
2023-05-09T02:55:40.851Z,239.51
2023-05-09T02:56:40.920Z,246.15
2023-05-09T02:57:40.805Z,253.59
2023-05-09T02:58:40.820Z,275.37
2023-05-09T02:59:40.822Z,269.28
2023-05-09T03:00:40.830Z,272.90
2023-05-09T03:01:40.822Z,275.40
2023-05-09T03:02:40.835Z,285.68
2023-05-09T03:03:40.908Z,272.88
2023-05-09T03:04:40.770Z,285.67
2023-05-09T03:05:40.748Z,280.55
2023-05-09T03:06:40.750Z,275.99
2023-05-09T03:07:40.833Z,272.32
2023-05-09T03:08:40.753Z,255.65
2023-05-09T03:09:41.304Z,261.31
2023-05-09T03:10:40.738Z,265.60
2023-05-09T03:11:40.724Z,265.15
2023-05-09T03:12:40.771Z,276.18
2023-05-09T03:13:40.736Z,258.73
2023-05-09T03:14:40.768Z,228.16
2023-05-09T03:15:40.731Z,235.02
2023-05-09T03:16:40.712Z,237.26
2023-05-09T03:17:40.731Z,265.24
2023-05-09T03:18:40.690Z,279.03
2023-05-09T03:19:40.688Z,303.30
2023-05-09T03:20:40.691Z,311.08
2023-05-09T03:21:40.708Z,265.01
2023-05-09T03:22:40.732Z,243.47
2023-05-09T03:23:40.824Z,229.40
2023-05-09T03:24:40.778Z,209.99
2023-05-09T03:25:40.831Z,187.71
2023-05-09T03:26:40.822Z,161.53
2023-05-09T03:27:40.852Z,156.96
2023-05-09T03:28:40.856Z,150.06
2023-05-09T03:29:40.911Z,143.58
2023-05-09T03:30:40.928Z,146.20
2023-05-09T03:31:40.955Z,139.76
2023-05-09T03:32:40.998Z,136.27
2023-05-09T03:33:40.985Z,125.78
2023-05-09T03:34:41.014Z,112.93
2023-05-09T03:35:41.043Z,105.54
2023-05-09T03:36:41.045Z,104.50
2023-05-09T03:37:41.105Z,103.86
2023-05-09T03:38:41.176Z,114.56
2023-05-09T03:39:41.299Z,126.19
2023-05-09T03:40:41.248Z,118.66
2023-05-09T03:41:41.307Z,120.13
2023-05-09T03:42:41.345Z,133.89
2023-05-09T03:43:41.414Z,160.70
2023-05-09T03:44:41.404Z,175.74
2023-05-09T03:45:41.470Z,167.66
2023-05-09T03:46:41.458Z,173.33
2023-05-09T03:47:41.596Z,214.49
2023-05-09T03:48:41.540Z,231.01
2023-05-09T03:49:41.600Z,263.28
2023-05-09T03:50:41.607Z,277.17
2023-05-09T03:51:42.213Z,282.01
2023-05-09T03:52:41.661Z,266.68
2023-05-09T03:53:41.688Z,269.02
2023-05-09T03:54:41.722Z,248.67
2023-05-09T03:55:41.803Z,234.89
2023-05-09T03:56:41.748Z,225.45
2023-05-09T03:57:41.752Z,255.31
2023-05-09T03:58:41.796Z,283.93
2023-05-09T03:59:41.825Z,289.26
2023-05-09T04:00:41.852Z,299.37
2023-05-09T04:01:41.867Z,324.85
2023-05-09T04:02:41.976Z,334.47
2023-05-09T04:03:42.035Z,350.90
2023-05-09T04:04:41.955Z,336.85
2023-05-09T04:05:41.979Z,263.59
2023-05-09T04:06:41.992Z,201.71
2023-05-09T04:07:42.061Z,173.63
2023-05-09T04:08:42.106Z,191.23
2023-05-09T04:09:42.089Z,211.17
2023-05-09T04:10:42.122Z,198.90
2023-05-09T04:11:42.257Z,205.78
2023-05-09T04:12:42.232Z,206.56
2023-05-09T04:13:42.225Z,224.97
2023-05-09T04:14:42.268Z,337.52
2023-05-09T04:15:42.296Z,261.35
2023-05-09T04:16:42.403Z,274.22
2023-05-09T04:17:42.394Z,345.15
2023-05-09T04:18:42.411Z,450.34
2023-05-09T04:19:42.457Z,471.26
2023-05-09T04:20:42.513Z,453.64
2023-05-09T04:21:42.583Z,488.70
2023-05-09T04:22:43.115Z,481.83
2023-05-09T04:23:42.621Z,518.32
2023-05-09T04:24:42.652Z,573.33
2023-05-09T04:25:42.663Z,636.94
2023-05-09T04:26:42.708Z,664.81
2023-05-09T04:27:42.810Z,649.52
2023-05-09T04:28:42.761Z,628.82
2023-05-09T04:29:42.762Z,623.23
2023-05-09T04:30:42.851Z,642.82
2023-05-09T04:31:42.932Z,626.53
2023-05-09T04:32:42.880Z,618.14
2023-05-09T04:33:42.889Z,579.09
2023-05-09T04:34:42.911Z,491.07
2023-05-09T04:35:42.938Z,525.64
2023-05-09T04:36:42.928Z,626.59
2023-05-09T04:37:43.006Z,622.38
2023-05-09T04:38:43.017Z,652.22
2023-05-09T04:39:43.089Z,650.05
2023-05-09T04:40:43.161Z,672.51
2023-05-09T04:41:43.157Z,728.98
2023-05-09T04:42:43.147Z,644.34
2023-05-09T04:43:43.261Z,631.18
2023-05-09T04:44:43.243Z,709.33
2023-05-09T04:45:43.193Z,672.25
2023-05-09T04:46:43.250Z,627.32
2023-05-09T04:47:43.278Z,697.56
2023-05-09T04:48:43.306Z,609.40
2023-05-09T04:49:43.307Z,578.53
2023-05-09T04:50:43.401Z,613.49
2023-05-09T04:51:43.424Z,732.41
2023-05-09T04:52:43.454Z,689.77
2023-05-09T04:53:43.486Z,650.72
2023-05-09T04:54:43.554Z,656.15
2023-05-09T04:55:43.609Z,690.06
2023-05-09T04:56:43.613Z,673.14
2023-05-09T04:57:43.609Z,698.00
2023-05-09T04:58:43.615Z,722.08
2023-05-09T04:59:43.619Z,634.64
2023-05-09T05:00:43.677Z,651.04
2023-05-09T05:01:43.810Z,641.97
2023-05-09T05:02:43.802Z,657.19
2023-05-09T05:03:43.801Z,624.07
2023-05-09T05:04:43.852Z,614.81
2023-05-09T05:05:43.989Z,625.24
2023-05-09T05:06:43.939Z,605.12
2023-05-09T05:07:43.995Z,526.85
2023-05-09T05:08:44.050Z,519.40
2023-05-09T05:09:44.107Z,493.98
2023-05-09T05:10:44.096Z,518.45
2023-05-09T05:11:53.157Z,439.28
2023-05-09T05:12:45.218Z,440.05
2023-05-09T05:13:44.165Z,449.07
2023-05-09T05:14:44.141Z,480.39
2023-05-09T05:15:44.195Z,542.71
2023-05-09T05:16:44.152Z,649.38
2023-05-09T05:17:44.151Z,641.50
2023-05-09T05:18:44.126Z,679.81
2023-05-09T05:19:44.079Z,608.37
2023-05-09T05:20:44.075Z,595.51
2023-05-09T05:21:44.081Z,632.62
2023-05-09T05:22:44.085Z,659.39
2023-05-09T05:23:44.096Z,641.84
2023-05-09T05:24:44.074Z,606.74
2023-05-09T05:25:44.104Z,563.00
2023-05-09T05:26:44.060Z,429.92
2023-05-09T05:27:44.060Z,408.05
2023-05-09T05:28:44.082Z,453.85
2023-05-09T05:29:44.032Z,447.43
2023-05-09T05:30:44.030Z,409.62
2023-05-09T05:31:44.156Z,367.25
2023-05-09T05:32:44.077Z,334.62
2023-05-09T05:33:44.097Z,322.22
2023-05-09T05:34:44.168Z,313.67
2023-05-09T05:35:44.162Z,282.47
2023-05-09T05:36:44.170Z,251.24
2023-05-09T05:37:44.215Z,219.02
2023-05-09T05:38:44.243Z,201.60
2023-05-09T05:39:44.332Z,196.56
2023-05-09T05:40:44.399Z,215.44
2023-05-09T05:41:44.405Z,248.92
2023-05-09T05:42:44.552Z,262.30
2023-05-09T05:43:44.519Z,229.04
2023-05-09T05:44:44.524Z,222.97
2023-05-09T05:45:44.564Z,221.49
2023-05-09T05:46:44.564Z,260.46
2023-05-09T05:47:44.729Z,270.61
2023-05-09T05:48:44.671Z,272.71
2023-05-09T05:49:44.729Z,274.16
2023-05-09T05:50:44.635Z,251.64
2023-05-09T05:51:44.639Z,209.19
2023-05-09T05:52:44.687Z,191.22
2023-05-09T05:53:44.722Z,145.12
2023-05-09T05:54:44.753Z,105.23
2023-05-09T05:55:44.798Z,76.37
2023-05-09T05:56:44.864Z,72.10
2023-05-09T05:57:44.859Z,77.35
2023-05-09T05:58:44.880Z,85.86
2023-05-09T05:59:44.976Z,66.41
2023-05-09T06:00:44.989Z,60.80
2023-05-09T06:01:44.998Z,77.22
2023-05-09T06:02:45.081Z,88.39
2023-05-09T06:03:45.213Z,97.78
2023-05-09T06:04:45.022Z,102.26
2023-05-09T06:05:45.033Z,94.98
2023-05-09T06:06:45.071Z,77.21
2023-05-09T06:07:45.113Z,56.85
2023-05-09T06:08:45.141Z,53.08
2023-05-09T06:09:45.206Z,55.65
2023-05-09T06:10:45.242Z,75.38
2023-05-09T06:11:45.315Z,81.76
2023-05-09T06:12:45.399Z,103.52
2023-05-09T06:13:45.368Z,96.41
2023-05-09T06:14:45.382Z,78.62
2023-05-09T06:15:45.448Z,63.04
2023-05-09T06:16:45.476Z,53.32
2023-05-09T06:17:45.567Z,52.43
2023-05-09T06:18:45.549Z,54.14
2023-05-09T06:19:45.687Z,69.27
2023-05-09T06:20:45.676Z,81.26
2023-05-09T06:21:45.668Z,83.29
2023-05-09T06:22:45.711Z,93.25
2023-05-09T06:24:45.736Z,69.52
2023-05-09T06:25:45.762Z,59.92
2023-05-09T06:26:45.708Z,64.28
2023-05-09T06:27:45.732Z,59.39
2023-05-09T06:28:45.682Z,55.74
2023-05-09T06:29:45.739Z,83.28
2023-05-09T06:30:45.698Z,83.86
2023-05-09T06:31:45.702Z,85.53
2023-05-09T06:32:45.694Z,106.85
2023-05-09T06:33:45.665Z,126.09
2023-05-09T06:34:45.656Z,117.62
2023-05-09T06:35:46.068Z,123.05
2023-05-09T06:36:45.644Z,103.13
2023-05-09T06:37:48.263Z,68.97
2023-05-09T06:38:45.624Z,69.62
2023-05-09T06:39:45.620Z,75.82
2023-05-09T06:40:45.619Z,81.53
2023-05-09T06:41:45.631Z,78.58
2023-05-09T06:42:45.637Z,77.79
2023-05-09T06:43:45.624Z,74.72
2023-05-09T06:44:45.586Z,81.86
2023-05-09T06:45:45.594Z,98.46
2023-05-09T06:46:45.749Z,106.18
2023-05-09T06:47:45.620Z,109.01
2023-05-09T06:48:45.580Z,105.42
2023-05-09T06:49:45.549Z,106.17
2023-05-09T06:50:45.557Z,108.28
2023-05-09T06:51:45.662Z,102.79
2023-05-09T06:52:45.518Z,93.74
2023-05-09T06:53:45.502Z,98.81
2023-05-09T06:54:45.520Z,135.25
2023-05-09T06:55:45.518Z,139.36
2023-05-09T06:56:45.539Z,141.42
2023-05-09T06:57:46.016Z,132.05
2023-05-09T06:58:45.961Z,127.14
2023-05-09T06:59:45.972Z,112.41
2023-05-09T07:00:45.516Z,119.96
2023-05-09T07:01:45.535Z,148.20
2023-05-09T07:02:45.552Z,177.35
2023-05-09T07:03:45.975Z,167.30
2023-05-09T07:04:45.521Z,158.19
2023-05-09T07:05:45.468Z,193.48
2023-05-09T07:06:45.465Z,189.52
2023-05-09T07:07:45.582Z,180.25
2023-05-09T07:08:45.431Z,193.42
2023-05-09T07:09:45.435Z,175.63
2023-05-09T07:10:45.444Z,211.72
2023-05-09T07:11:45.427Z,232.34
2023-05-09T07:12:45.430Z,219.42
2023-05-09T07:13:45.401Z,236.23
2023-05-09T07:14:45.418Z,246.91
2023-05-09T07:15:45.606Z,248.43
2023-05-09T07:16:45.471Z,234.11
2023-05-09T07:17:45.406Z,249.78
2023-05-09T07:18:45.391Z,243.28
2023-05-09T07:19:45.364Z,239.05
2023-05-09T07:20:45.382Z,249.14
2023-05-09T07:21:45.346Z,283.14
2023-05-09T07:22:45.356Z,302.84
2023-05-09T07:23:45.426Z,359.89
2023-05-09T07:24:45.341Z,351.92
2023-05-09T07:25:45.507Z,285.02
2023-05-09T07:26:45.489Z,275.05
2023-05-09T07:27:45.332Z,342.95
2023-05-09T07:28:45.289Z,385.80
2023-05-09T07:29:45.294Z,240.45
2023-05-09T07:30:45.519Z,192.10
2023-05-09T07:31:45.346Z,165.13
2023-05-09T07:32:45.328Z,140.27
2023-05-09T07:33:45.295Z,115.83
2023-05-09T07:34:45.271Z,98.49
2023-05-09T07:35:45.490Z,102.79
2023-05-09T07:36:45.504Z,97.98
2023-05-09T07:37:45.271Z,92.00
2023-05-09T07:38:45.291Z,99.94
2023-05-09T07:39:45.331Z,106.55
2023-05-09T07:40:45.341Z,109.22
2023-05-09T07:41:46.421Z,124.05
2023-05-09T07:42:45.365Z,123.10
2023-05-09T07:43:45.430Z,126.10
2023-05-09T07:44:45.379Z,136.50
2023-05-09T07:45:45.448Z,124.41
2023-05-09T07:46:45.470Z,98.10
2023-05-09T07:47:45.543Z,96.97
2023-05-09T07:48:45.440Z,101.55
2023-05-09T07:49:45.529Z,88.83
2023-05-09T07:50:45.571Z,86.04
2023-05-09T07:51:45.989Z,75.47
2023-05-09T07:52:45.682Z,90.53
2023-05-09T07:53:45.710Z,90.22
2023-05-09T07:54:46.024Z,100.76
2023-05-09T07:55:45.882Z,124.76
2023-05-09T07:56:45.829Z,129.72
2023-05-09T07:57:45.819Z,124.02
2023-05-09T07:58:45.885Z,86.15
2023-05-09T07:59:45.852Z,58.07
2023-05-09T08:00:45.918Z,51.35
2023-05-09T08:01:45.973Z,59.57
2023-05-09T08:02:46.015Z,65.04
2023-05-09T08:03:46.113Z,73.08
2023-05-09T08:04:46.021Z,61.04
2023-05-09T08:05:46.068Z,44.40
2023-05-09T08:06:46.107Z,36.12
2023-05-09T08:07:46.455Z,33.53
2023-05-09T08:08:46.156Z,34.55
2023-05-09T08:09:46.171Z,37.87
2023-05-09T08:10:46.169Z,37.91
2023-05-09T08:11:46.561Z,31.89
2023-05-09T08:12:46.213Z,36.12
2023-05-09T08:13:46.495Z,40.39
2023-05-09T08:14:46.255Z,27.84
2023-05-09T08:15:46.331Z,27.65
2023-05-09T08:16:46.311Z,19.30
2023-05-09T08:17:46.442Z,15.61
2023-05-09T08:18:46.428Z,30.33
2023-05-09T08:19:46.440Z,25.03
2023-05-09T08:20:46.502Z,19.70
2023-05-09T08:21:46.511Z,14.02
2023-05-09T08:22:46.535Z,9.74
2023-05-09T08:23:46.605Z,7.17
2023-05-09T08:24:46.640Z,5.07
2023-05-09T08:25:47.032Z,4.72
2023-05-09T08:26:46.725Z,6.37
2023-05-09T08:27:46.926Z,5.85
2023-05-09T08:28:46.766Z,13.74
2023-05-09T08:29:46.819Z,19.64
2023-05-09T08:30:46.817Z,12.83
2023-05-09T08:31:46.912Z,26.16
2023-05-09T08:32:47.067Z,24.33
2023-05-09T08:33:46.943Z,12.29
2023-05-09T08:34:46.970Z,16.82
2023-05-09T08:35:47.067Z,14.76
2023-05-09T08:36:47.097Z,17.00
2023-05-09T08:37:47.128Z,17.42
2023-05-09T08:38:47.300Z,27.85
2023-05-09T08:39:47.185Z,48.34
2023-05-09T08:40:47.233Z,49.07
2023-05-09T08:41:47.256Z,24.29
2023-05-09T08:42:47.409Z,16.22
2023-05-09T08:43:47.589Z,13.93
2023-05-09T08:44:47.435Z,13.92
2023-05-09T08:45:47.483Z,16.19
2023-05-09T08:46:47.541Z,16.15
2023-05-09T08:47:47.609Z,15.86
2023-05-09T08:48:47.597Z,10.60
2023-05-09T08:49:47.659Z,7.86
2023-05-09T08:50:47.698Z,7.53
2023-05-09T08:51:47.771Z,6.30
2023-05-09T08:52:47.815Z,5.27
2023-05-09T08:53:48.016Z,2.61
2023-05-09T08:54:48.003Z,2.00
2023-05-09T08:55:47.890Z,2.23
2023-05-09T08:56:48.026Z,2.62
2023-05-09T08:57:47.941Z,2.96
2023-05-09T08:58:48.009Z,3.01
2023-05-09T08:59:48.090Z,3.47
2023-05-09T09:00:48.017Z,3.59
2023-05-09T09:01:48.102Z,3.32
2023-05-09T09:02:48.103Z,2.26
2023-05-09T09:03:48.090Z,2.29
2023-05-09T09:04:48.209Z,2.64
2023-05-09T09:05:48.241Z,2.30
2023-05-09T09:06:48.519Z,2.60
2023-05-09T09:07:48.515Z,2.78
2023-05-09T09:08:48.512Z,2.76
2023-05-09T09:09:48.359Z,2.79
2023-05-09T09:10:48.536Z,1.62
2023-05-09T09:11:48.432Z,1.24
2023-05-09T09:12:50.009Z,1.28
2023-05-09T09:13:48.523Z,1.19
2023-05-09T09:14:49.041Z,1.31
2023-05-09T09:15:49.094Z,1.05
2023-05-09T09:16:48.736Z,1.44
2023-05-09T09:17:48.728Z,2.11
2023-05-09T09:18:48.682Z,1.24
2023-05-09T09:19:48.761Z,0.53
2023-05-09T09:20:49.011Z,0.43
2023-05-09T09:21:48.778Z,0.55
2023-05-09T09:22:48.818Z,0.57
2023-05-09T09:23:48.953Z,0.80
2023-05-09T09:24:48.901Z,1.28
2023-05-09T09:25:48.935Z,1.56
2023-05-09T09:26:49.032Z,1.40
2023-05-09T09:27:48.944Z,1.28
2023-05-09T09:28:49.037Z,1.11
2023-05-09T09:29:49.028Z,1.25
2023-05-09T09:30:49.508Z,0.93
2023-05-09T09:31:49.196Z,1.14
2023-05-09T09:32:49.176Z,0.99
2023-05-09T09:33:49.162Z,1.54
2023-05-09T09:34:49.161Z,1.23
2023-05-09T09:35:49.213Z,0.90
2023-05-09T09:36:49.270Z,1.30
2023-05-09T09:37:49.240Z,1.06
2023-05-09T09:38:49.262Z,0.53
2023-05-09T09:39:49.344Z,0.38
2023-05-09T09:40:49.410Z,0.34
2023-05-09T09:41:49.439Z,0.34
2023-05-09T09:42:49.464Z,0.34
2023-05-09T09:43:49.532Z,0.34
2023-05-09T09:44:49.572Z,0.34
2023-05-09T09:45:49.620Z,0.34
2023-05-09T09:46:49.614Z,0.34
2023-05-09T09:47:49.741Z,0.38
2023-05-09T09:48:49.658Z,0.38
2023-05-09T09:49:49.717Z,0.70
2023-05-09T09:50:49.725Z,1.70
2023-05-09T09:51:49.794Z,2.52
2023-05-09T09:52:49.846Z,3.52
2023-05-09T09:53:49.908Z,1.77
2023-05-09T09:54:49.852Z,1.11
2023-05-09T09:55:49.910Z,1.15
2023-05-09T09:56:49.983Z,1.01
2023-05-09T09:57:49.995Z,0.54
2023-05-09T09:58:50.004Z,0.58
2023-05-09T09:59:50.011Z,0.50
2023-05-09T10:00:50.057Z,0.51
2023-05-09T10:01:50.253Z,0.76
2023-05-09T10:02:50.174Z,0.66
2023-05-09T10:03:50.304Z,0.34
2023-05-09T10:04:50.229Z,0.34
2023-05-09T10:05:50.262Z,0.70
2023-05-09T10:06:50.254Z,0.50
2023-05-09T10:07:50.299Z,0.34
2023-05-09T10:08:50.340Z,0.38
2023-05-09T10:09:50.341Z,0.50
2023-05-09T10:10:50.393Z,1.05
2023-05-09T10:11:50.425Z,0.95
2023-05-09T10:12:50.475Z,0.50
2023-05-09T10:13:50.439Z,0.34
2023-05-09T10:14:50.477Z,0.34
2023-05-09T10:15:53.910Z,0.34
2023-05-09T10:16:50.584Z,0.34
2023-05-09T10:17:50.584Z,0.34
2023-05-09T10:18:50.589Z,0.34
2023-05-09T10:19:50.552Z,0.34
2023-05-09T10:20:50.486Z,0.34
2023-05-09T10:21:50.493Z,0.34
2023-05-09T10:22:50.447Z,0.34
2023-05-09T10:23:50.468Z,0.34
2023-05-09T10:24:50.453Z,0.34
2023-05-09T10:25:50.496Z,0.55
2023-05-09T10:26:50.427Z,0.67
2023-05-09T10:27:50.687Z,0.75
2023-05-09T10:28:50.438Z,1.19
2023-05-09T10:29:50.396Z,1.21
2023-05-09T10:30:50.418Z,2.79
2023-05-09T10:31:50.464Z,3.00
2023-05-09T10:32:50.524Z,3.84
2023-05-09T10:33:50.424Z,3.32
2023-05-09T10:34:50.401Z,1.42
2023-05-09T10:35:50.471Z,1.10
2023-05-09T10:36:50.387Z,1.16
2023-05-09T10:37:50.379Z,1.63
2023-05-09T10:38:50.360Z,1.89
2023-05-09T10:39:50.408Z,1.09
2023-05-09T10:40:50.359Z,0.83
2023-05-09T10:41:50.329Z,0.57
2023-05-09T10:42:50.312Z,0.44
2023-05-09T10:43:50.322Z,0.34
2023-05-09T10:44:50.337Z,0.34
2023-05-09T10:45:50.336Z,0.34
2023-05-09T10:46:50.380Z,0.34
2023-05-09T10:47:50.326Z,0.34
2023-05-09T10:48:50.283Z,0.38
2023-05-09T10:49:50.292Z,0.34
2023-05-09T10:50:50.294Z,0.51
2023-05-09T10:51:50.373Z,0.57
2023-05-09T10:52:50.309Z,0.34
2023-05-09T10:53:50.350Z,0.50
2023-05-09T10:54:50.249Z,1.29
2023-05-09T10:55:50.295Z,3.98
2023-05-09T10:56:50.228Z,6.69
2023-05-09T10:57:50.246Z,4.81
2023-05-09T10:58:50.246Z,3.12
2023-05-09T10:59:50.220Z,2.56
2023-05-09T11:00:50.246Z,3.24
2023-05-09T11:01:50.295Z,2.24
2023-05-09T11:02:50.407Z,3.03
2023-05-09T11:03:50.429Z,4.61
2023-05-09T11:04:50.353Z,5.56
2023-05-09T11:05:50.357Z,4.15
2023-05-09T11:06:50.413Z,5.25
2023-05-09T11:07:50.534Z,5.17
2023-05-09T11:08:50.499Z,2.63
2023-05-09T11:09:50.531Z,4.24
2023-05-09T11:10:50.532Z,4.75
2023-05-09T11:11:50.532Z,3.14
2023-05-09T11:12:50.604Z,3.69
2023-05-09T11:13:50.601Z,2.89
2023-05-09T11:14:50.628Z,2.98
2023-05-09T11:15:50.698Z,3.03
2023-05-09T11:16:50.958Z,3.12
2023-05-09T11:17:50.750Z,2.46
2023-05-09T11:18:50.768Z,2.72
2023-05-09T11:19:50.769Z,2.09
2023-05-09T11:20:50.792Z,3.03
2023-05-09T11:21:50.842Z,2.75
2023-05-09T11:22:50.887Z,1.28
2023-05-09T11:23:52.381Z,0.88
2023-05-09T11:24:50.906Z,0.72
2023-05-09T11:25:50.944Z,1.30
2023-05-09T11:26:50.912Z,1.32
2023-05-09T11:27:50.899Z,1.59
2023-05-09T11:28:50.895Z,5.34
2023-05-09T11:29:50.872Z,6.79
2023-05-09T11:30:50.832Z,1.87
2023-05-09T11:31:50.872Z,2.49
2023-05-09T11:32:50.864Z,1.85
2023-05-09T11:33:50.853Z,1.56
2023-05-09T11:34:50.849Z,1.05
2023-05-09T11:35:50.835Z,5.32
2023-05-09T11:36:50.847Z,1.82
2023-05-09T11:37:50.819Z,0.92
2023-05-09T11:38:50.838Z,1.00
2023-05-09T11:39:50.883Z,1.03
2023-05-09T11:40:50.808Z,1.84
2023-05-09T11:41:50.773Z,1.38
2023-05-09T11:42:50.830Z,0.68
2023-05-09T11:43:50.774Z,0.34
2023-05-09T11:44:50.753Z,0.34
2023-05-09T11:45:50.770Z,0.34
2023-05-09T11:46:50.746Z,0.34
2023-05-09T11:47:50.786Z,0.34
2023-05-09T11:48:50.746Z,0.69
2023-05-09T11:49:50.711Z,0.76
2023-05-09T11:50:50.770Z,0.57
2023-05-09T11:51:50.721Z,0.47
2023-05-09T11:52:50.764Z,0.40
2023-05-09T11:53:50.718Z,0.50
2023-05-09T11:54:50.707Z,0.80
2023-05-09T11:55:50.862Z,1.11
2023-05-09T11:56:50.692Z,1.30
2023-05-09T11:57:50.686Z,1.02
2023-05-09T11:58:50.714Z,0.53
2023-05-09T11:59:50.657Z,0.69
2023-05-09T12:00:50.657Z,0.39
2023-05-09T12:01:50.673Z,0.34
2023-05-09T12:02:50.729Z,0.34
2023-05-09T12:03:50.720Z,0.36
2023-05-09T12:04:50.617Z,0.52
2023-05-09T12:05:50.699Z,0.59
2023-05-09T12:06:50.628Z,0.65
2023-05-09T12:07:50.602Z,0.60
2023-05-09T12:08:50.629Z,0.56
2023-05-09T12:09:50.625Z,0.59
2023-05-09T12:10:50.622Z,0.51
2023-05-09T12:11:50.689Z,0.79
2023-05-09T12:12:50.665Z,0.74
2023-05-09T12:13:50.610Z,0.63
2023-05-09T12:14:50.576Z,0.41
2023-05-09T12:15:50.695Z,0.55
2023-05-09T12:16:50.577Z,0.56
2023-05-09T12:17:52.039Z,2.01
2023-05-09T12:18:50.586Z,1.39
2023-05-09T12:19:50.536Z,1.39
2023-05-09T12:20:50.640Z,0.84
2023-05-09T12:21:50.516Z,2.52
2023-05-09T12:22:50.559Z,3.73
2023-05-09T12:23:52.575Z,7.91
2023-05-09T12:24:50.530Z,2.17
2023-05-09T12:25:50.653Z,1.62
2023-05-09T12:26:50.544Z,1.21
2023-05-09T12:27:50.636Z,0.87
2023-05-09T12:28:50.512Z,0.83
2023-05-09T12:29:50.909Z,0.74
2023-05-09T12:30:50.506Z,0.95
2023-05-09T12:31:50.507Z,1.16
2023-05-09T12:32:50.589Z,1.91
2023-05-09T12:33:50.508Z,1.43
2023-05-09T12:34:50.478Z,1.53
2023-05-09T12:35:50.714Z,1.52
2023-05-09T12:36:50.478Z,0.58
2023-05-09T12:37:50.480Z,0.63
2023-05-09T12:38:50.463Z,0.89
2023-05-09T12:39:50.473Z,1.10
2023-05-09T12:40:50.439Z,0.81
2023-05-09T12:42:01.111Z,0.47
2023-05-09T12:42:51.448Z,0.48
2023-05-09T12:43:50.526Z,0.51
2023-05-09T12:44:50.452Z,0.55
2023-05-09T12:45:50.437Z,0.68
2023-05-09T12:46:50.439Z,1.18
2023-05-09T12:47:50.434Z,0.82
2023-05-09T12:48:50.438Z,0.60